Decoded Metar for YBUD ( in ) (IATA:) | Meteo·Mobile Aviation Weather
aviador You're here:

YBUD Decoded Metar

in
Report Time2018-09-19 15:00:00
UTC Time2018-09-19 15:13:12
Flight Rules vfr VFR
Wind330° at 06 kt
W.Decomp.*RWY 32: 5.9 kt HW 1.0 kt RCW
RWY 25: 1.0 kt HW 5.9 kt RCW
W.Rank330° ranks 25
Current wind is below 330° avg. (7.1)
Visibility9999 m
Phenomena:N/A
Clouds:N/A
Expected CloudBase > 400 ft AGL from Temp-Dew spread
CeilingNone
Temp15°C
Dew Point14°C (94% RH)
AAT14.1°C
QNH1014 hPa
Raw Report
METAR YBUD 191500Z AUTO 33006KT 9999 // NCD 15/14 Q1014=

Extra information for YBUD:More info

Social comments